createdAt,value
2022-12-06T00:01:44.606Z,27.65
2022-12-06T00:04:16.317Z,27.63
2022-12-06T00:06:48.471Z,29.40
2022-12-06T00:09:26.870Z,27.30
2022-12-06T00:11:55.623Z,27.25
2022-12-06T00:14:23.795Z,30.80
2022-12-06T00:16:52.813Z,29.27
2022-12-06T00:19:23.871Z,28.45
2022-12-06T00:21:54.506Z,27.85
2022-12-06T00:24:24.338Z,26.38
2022-12-06T00:26:52.890Z,26.92
2022-12-06T00:29:24.630Z,26.75
2022-12-06T00:31:52.894Z,25.60
2022-12-06T00:34:21.297Z,26.75
2022-12-06T00:36:49.994Z,27.80
2022-12-06T00:39:18.971Z,27.85
2022-12-06T00:41:46.900Z,27.63
2022-12-06T00:44:14.904Z,25.38
2022-12-06T00:46:42.727Z,27.42
2022-12-06T00:49:11.042Z,26.27
2022-12-06T00:51:39.842Z,26.40
2022-12-06T00:54:10.635Z,26.30
2022-12-06T00:56:38.170Z,25.02
2022-12-06T00:59:07.297Z,24.63
2022-12-06T01:01:36.616Z,25.15
2022-12-06T01:04:07.421Z,25.95
2022-12-06T01:06:37.941Z,23.98
2022-12-06T01:09:10.500Z,26.73
2022-12-06T01:11:38.852Z,22.55
2022-12-06T01:14:07.724Z,23.67
2022-12-06T01:16:35.426Z,22.42
2022-12-06T01:19:05.680Z,21.67
2022-12-06T01:21:32.929Z,21.88
2022-12-06T01:24:00.014Z,21.90
2022-12-06T01:26:31.877Z,22.27
2022-12-06T01:29:00.412Z,20.92
2022-12-06T01:31:35.420Z,21.73
2022-12-06T01:34:05.389Z,19.38
2022-12-06T01:36:33.421Z,19.58
2022-12-06T01:39:01.740Z,19.70
2022-12-06T01:41:28.926Z,18.88
2022-12-06T01:43:56.968Z,19.85
2022-12-06T01:46:42.675Z,19.30
2022-12-06T01:49:25.833Z,18.05
2022-12-06T01:52:02.221Z,20.13
2022-12-06T01:54:30.508Z,19.98
2022-12-06T01:56:59.249Z,19.75
2022-12-06T01:59:28.097Z,20.15
2022-12-06T02:01:56.186Z,20.17
2022-12-06T02:04:24.462Z,19.42
2022-12-06T02:06:54.289Z,20.17
2022-12-06T02:09:22.765Z,20.55
2022-12-06T02:11:49.893Z,19.35
2022-12-06T02:14:22.797Z,20.27
2022-12-06T02:17:14.683Z,18.52
2022-12-06T02:20:15.582Z,19.38
2022-12-06T02:23:10.225Z,19.23
2022-12-06T02:26:05.204Z,18.23
2022-12-06T02:28:58.347Z,22.02
2022-12-06T02:31:40.609Z,17.95
2022-12-06T02:34:16.982Z,15.50
2022-12-06T02:37:03.816Z,15.65
2022-12-06T02:39:44.965Z,17.88
2022-12-06T02:42:24.934Z,18.67
2022-12-06T02:44:56.654Z,18.50
2022-12-06T02:47:32.666Z,20.15
2022-12-06T02:50:03.311Z,18.73
2022-12-06T02:52:32.268Z,18.48
2022-12-06T02:55:01.324Z,20.10
2022-12-06T02:57:57.436Z,18.63
2022-12-06T03:00:46.601Z,17.48
2022-12-06T03:03:56.308Z,16.90
2022-12-06T03:07:04.596Z,16.17
2022-12-06T03:10:17.679Z,17.15
2022-12-06T03:13:09.676Z,16.98
2022-12-06T03:16:11.879Z,16.27
2022-12-06T03:19:06.732Z,17.00
2022-12-06T03:21:41.190Z,17.08
2022-12-06T03:24:14.555Z,17.63
2022-12-06T03:26:46.315Z,17.60
2022-12-06T03:29:18.213Z,17.55
2022-12-06T03:31:47.249Z,18.50
2022-12-06T03:34:19.456Z,17.42
2022-12-06T03:36:50.368Z,18.95
2022-12-06T03:39:29.717Z,17.67
2022-12-06T03:41:58.804Z,18.85
2022-12-06T03:44:27.047Z,18.10
2022-12-06T03:47:31.300Z,19.63
2022-12-06T03:50:09.831Z,20.80
2022-12-06T03:52:38.696Z,19.75
2022-12-06T03:55:06.826Z,18.10
2022-12-06T03:57:34.965Z,21.30
2022-12-06T04:00:02.383Z,19.42
2022-12-06T04:02:38.554Z,18.75
2022-12-06T04:05:06.090Z,19.65
2022-12-06T04:07:33.079Z,20.08
2022-12-06T04:10:03.748Z,20.45
2022-12-06T04:12:54.515Z,20.42
2022-12-06T04:15:23.288Z,19.02
2022-12-06T04:18:09.316Z,20.60
2022-12-06T04:21:19.972Z,21.50
2022-12-06T04:23:50.599Z,17.50
2022-12-06T04:26:23.630Z,20.20
2022-12-06T04:29:12.166Z,19.55
2022-12-06T04:31:59.239Z,20.55
2022-12-06T04:34:44.763Z,18.85
2022-12-06T04:37:30.260Z,19.17
2022-12-06T04:39:57.518Z,19.05
2022-12-06T04:42:43.152Z,19.15
2022-12-06T04:45:10.736Z,18.73
2022-12-06T04:47:37.791Z,17.33
2022-12-06T04:50:05.640Z,17.05
2022-12-06T04:52:35.660Z,17.75
2022-12-06T04:55:05.292Z,16.35
2022-12-06T04:57:32.515Z,16.77
2022-12-06T05:00:00.087Z,16.15
2022-12-06T05:02:27.380Z,16.25
2022-12-06T05:04:54.410Z,16.60
2022-12-06T05:07:21.511Z,17.65
2022-12-06T05:09:48.525Z,15.77
2022-12-06T05:12:15.590Z,13.27
2022-12-06T05:14:42.598Z,17.45
2022-12-06T05:17:09.657Z,14.00
2022-12-06T05:19:36.682Z,14.68
2022-12-06T05:22:03.795Z,16.38
2022-12-06T05:24:31.616Z,14.73
2022-12-06T05:26:58.877Z,14.35
2022-12-06T05:29:25.983Z,16.77
2022-12-06T05:31:53.044Z,16.90
2022-12-06T05:34:20.220Z,14.48
2022-12-06T05:36:47.250Z,14.85
2022-12-06T05:39:14.314Z,13.35
2022-12-06T05:41:41.473Z,14.82
2022-12-06T05:44:12.270Z,13.85
2022-12-06T05:46:39.584Z,13.48
2022-12-06T05:49:06.597Z,16.83
2022-12-06T05:51:33.643Z,16.83
2022-12-06T05:54:03.553Z,15.27
2022-12-06T05:56:30.514Z,16.50
2022-12-06T05:58:58.067Z,17.15
2022-12-06T06:01:25.251Z,18.10
2022-12-06T06:03:52.683Z,16.50
2022-12-06T06:06:19.818Z,16.65
2022-12-06T06:08:46.863Z,16.67
2022-12-06T06:11:13.913Z,13.25
2022-12-06T06:13:41.064Z,16.75
2022-12-06T06:16:08.342Z,16.85
2022-12-06T06:18:35.579Z,16.17
2022-12-06T06:21:04.074Z,17.00
2022-12-06T06:23:31.305Z,17.42
2022-12-06T06:25:58.856Z,17.98
2022-12-06T06:28:26.211Z,15.55
2022-12-06T06:30:53.223Z,14.50
2022-12-06T06:33:21.276Z,15.55
2022-12-06T06:35:48.513Z,14.75
2022-12-06T06:38:15.536Z,18.70
2022-12-06T06:40:43.802Z,15.75
2022-12-06T06:43:20.641Z,16.95
2022-12-06T06:46:01.095Z,16.67
2022-12-06T06:48:33.204Z,17.15
2022-12-06T06:51:12.596Z,14.25
2022-12-06T06:53:40.521Z,16.00
2022-12-06T06:56:08.238Z,15.10
2022-12-06T06:58:36.577Z,14.65
2022-12-06T07:01:09.689Z,14.45
2022-12-06T07:03:38.304Z,14.50
2022-12-06T07:06:09.731Z,13.85
2022-12-06T07:08:38.482Z,12.90
2022-12-06T07:11:06.819Z,17.02
2022-12-06T07:13:34.821Z,12.85
2022-12-06T07:16:05.283Z,16.42
2022-12-06T07:18:32.701Z,17.35
2022-12-06T07:21:06.143Z,15.88
2022-12-06T07:23:35.908Z,15.87
2022-12-06T07:26:18.419Z,19.92
2022-12-06T07:28:48.435Z,19.08
2022-12-06T07:31:22.856Z,17.00
2022-12-06T07:33:54.326Z,16.38
2022-12-06T07:36:23.325Z,16.17
2022-12-06T07:38:54.937Z,19.35
2022-12-06T07:41:43.420Z,17.60
2022-12-06T07:44:39.731Z,19.75
2022-12-06T07:47:06.814Z,16.45
2022-12-06T07:49:33.941Z,19.33
2022-12-06T07:52:01.158Z,16.98
2022-12-06T07:54:28.377Z,22.02
2022-12-06T07:56:56.592Z,19.38
2022-12-06T07:59:24.972Z,24.65
2022-12-06T08:01:53.501Z,21.55
2022-12-06T08:04:21.303Z,32.38
2022-12-06T08:06:48.457Z,30.80
2022-12-06T08:09:15.541Z,36.50
2022-12-06T08:11:43.241Z,34.53
2022-12-06T08:14:11.361Z,28.92
2022-12-06T08:16:41.331Z,31.98
2022-12-06T08:19:08.927Z,36.35
2022-12-06T08:21:35.967Z,31.23
2022-12-06T08:24:04.359Z,26.35
2022-12-06T08:26:32.027Z,30.67
2022-12-06T08:29:03.739Z,30.75
2022-12-06T08:31:32.197Z,32.38
2022-12-06T08:33:59.343Z,32.25
2022-12-06T08:36:28.508Z,32.97
2022-12-06T08:38:56.501Z,33.15
2022-12-06T08:41:42.092Z,34.30
2022-12-06T08:44:14.330Z,34.25
2022-12-06T08:46:42.401Z,37.85
2022-12-06T08:49:10.877Z,35.53
2022-12-06T08:51:38.833Z,32.95
2022-12-06T08:54:09.272Z,31.63
2022-12-06T08:56:37.130Z,31.65
2022-12-06T08:59:05.149Z,30.55
2022-12-06T09:01:37.678Z,29.30
2022-12-06T09:04:08.262Z,29.90
2022-12-06T09:06:39.982Z,30.33
2022-12-06T09:09:08.858Z,30.40
2022-12-06T09:11:36.011Z,31.50
2022-12-06T09:14:03.651Z,32.83
2022-12-06T09:16:31.044Z,31.90
2022-12-06T09:18:58.317Z,33.00
2022-12-06T09:21:33.548Z,32.22
2022-12-06T09:24:01.679Z,35.78
2022-12-06T09:26:29.813Z,31.42
2022-12-06T09:28:58.421Z,35.42
2022-12-06T09:31:26.244Z,38.50
2022-12-06T09:33:53.649Z,41.17
2022-12-06T09:36:29.349Z,42.15
2022-12-06T09:39:05.361Z,42.33
2022-12-06T09:41:43.891Z,40.90
2022-12-06T09:44:27.379Z,40.20
2022-12-06T09:47:17.383Z,37.38
2022-12-06T09:50:48.943Z,34.72
2022-12-06T09:53:35.575Z,36.47
2022-12-06T09:56:23.486Z,40.13
2022-12-06T09:59:34.698Z,36.40
2022-12-06T10:02:24.282Z,35.08
2022-12-06T10:05:27.114Z,34.55
2022-12-06T10:08:19.057Z,27.27
2022-12-06T10:11:02.745Z,30.90
2022-12-06T10:13:50.885Z,29.33
2022-12-06T10:16:36.961Z,33.05
2022-12-06T10:19:19.163Z,33.50
2022-12-06T10:22:11.114Z,27.83
2022-12-06T10:25:14.179Z,28.60
2022-12-06T10:27:58.993Z,27.75
2022-12-06T10:30:27.031Z,27.92
2022-12-06T10:33:42.222Z,27.33
2022-12-06T10:36:13.861Z,26.60
2022-12-06T10:38:53.347Z,27.38
2022-12-06T10:41:48.971Z,26.33
2022-12-06T10:44:33.176Z,28.20
2022-12-06T10:47:37.840Z,25.73
2022-12-06T10:50:30.673Z,29.30
2022-12-06T10:53:16.184Z,29.52
2022-12-06T10:55:56.642Z,28.83
2022-12-06T10:58:43.090Z,29.02
2022-12-06T11:01:24.421Z,29.75
2022-12-06T11:04:09.671Z,30.60
2022-12-06T11:07:04.395Z,29.92
2022-12-06T11:09:43.497Z,31.98
2022-12-06T11:12:25.377Z,31.98
2022-12-06T11:15:22.124Z,28.95
2022-12-06T11:18:00.890Z,32.42
2022-12-06T11:20:56.950Z,28.58
2022-12-06T11:23:49.448Z,30.23
2022-12-06T11:26:40.585Z,30.35
2022-12-06T11:29:13.678Z,29.77
2022-12-06T11:31:51.945Z,32.58
2022-12-06T11:34:36.965Z,35.55
2022-12-06T11:37:05.839Z,33.45
2022-12-06T11:39:34.227Z,33.70
2022-12-06T11:42:04.860Z,35.53
2022-12-06T11:44:49.513Z,34.38
2022-12-06T11:47:22.034Z,36.25
2022-12-06T11:49:52.257Z,36.33
2022-12-06T11:52:34.366Z,34.72
2022-12-06T11:55:19.512Z,33.85
2022-12-06T11:58:08.944Z,33.95
2022-12-06T12:00:36.237Z,36.08
2022-12-06T12:03:05.718Z,34.50
2022-12-06T12:05:39.494Z,40.78
2022-12-06T12:08:17.925Z,35.95
2022-12-06T12:10:47.618Z,30.55
2022-12-06T12:13:40.089Z,31.42
2022-12-06T12:16:18.730Z,30.13
2022-12-06T12:19:23.883Z,28.63
2022-12-06T12:21:54.440Z,27.10
2022-12-06T12:27:40.769Z,27.42
2022-12-06T12:30:36.812Z,28.08
2022-12-06T12:33:06.612Z,29.45
2022-12-06T12:35:55.012Z,27.02
2022-12-06T12:38:44.941Z,25.85
2022-12-06T12:41:42.397Z,24.60
2022-12-06T12:44:39.875Z,23.10
2022-12-06T12:47:20.672Z,24.83
2022-12-06T12:50:18.225Z,23.58
2022-12-06T12:52:45.883Z,22.55
2022-12-06T12:55:13.026Z,27.63
2022-12-06T12:57:42.084Z,24.63
2022-12-06T13:00:38.134Z,24.13
2022-12-06T13:03:49.112Z,23.85
2022-12-06T13:06:02.772Z,23.55
2022-12-06T13:08:36.360Z,24.33
2022-12-06T13:11:06.458Z,22.15
2022-12-06T13:13:44.040Z,18.88
2022-12-06T13:16:15.800Z,17.23
2022-12-06T13:18:51.628Z,17.58
2022-12-06T13:21:27.914Z,14.73
2022-12-06T13:24:08.092Z,13.88
2022-12-06T13:27:07.194Z,12.68
2022-12-06T13:29:35.898Z,12.43
2022-12-06T13:32:15.220Z,12.05
2022-12-06T13:34:58.500Z,12.30
2022-12-06T13:37:45.695Z,12.00
2022-12-06T13:40:46.538Z,10.93
2022-12-06T13:43:39.314Z,12.07
2022-12-06T13:46:09.988Z,11.30
2022-12-06T13:49:24.856Z,11.73
2022-12-06T13:51:52.298Z,10.80
2022-12-06T13:54:19.414Z,11.00
2022-12-06T13:56:46.787Z,12.80
2022-12-06T13:59:16.613Z,12.57
2022-12-06T14:01:55.373Z,12.15
2022-12-06T14:06:56.797Z,12.18
2022-12-06T14:09:29.089Z,12.35
2022-12-06T14:12:01.524Z,12.52
2022-12-06T14:14:29.794Z,12.10
2022-12-06T14:17:02.637Z,12.70
2022-12-06T14:19:47.479Z,12.65
2022-12-06T14:25:15.231Z,10.70
2022-12-06T14:27:47.971Z,10.95
2022-12-06T14:30:28.122Z,11.73
2022-12-06T14:32:59.445Z,11.68
2022-12-06T14:35:37.756Z,11.63
2022-12-06T14:38:32.224Z,12.68
2022-12-06T14:41:19.651Z,13.63
2022-12-06T14:43:49.048Z,12.15
2022-12-06T14:46:21.757Z,11.38
2022-12-06T14:49:09.723Z,11.80
2022-12-06T14:51:42.581Z,11.82
2022-12-06T14:54:41.235Z,11.15
2022-12-06T14:57:32.167Z,12.93
2022-12-06T15:00:17.188Z,11.43
2022-12-06T15:03:12.195Z,12.35
2022-12-06T15:05:44.640Z,11.15
2022-12-06T15:08:31.819Z,11.73
2022-12-06T15:11:53.642Z,12.57
2022-12-06T15:14:49.765Z,12.32
2022-12-06T15:17:24.495Z,13.30
2022-12-06T15:19:55.983Z,14.48
2022-12-06T15:22:30.616Z,13.95
2022-12-06T15:25:00.465Z,14.45
2022-12-06T15:27:35.914Z,14.63
2022-12-06T15:30:06.766Z,15.73
2022-12-06T15:32:36.304Z,13.77
2022-12-06T15:35:06.234Z,14.85
2022-12-06T15:37:40.356Z,15.25
2022-12-06T15:40:19.341Z,15.18
2022-12-06T15:42:55.525Z,15.40
2022-12-06T15:45:37.050Z,14.00
2022-12-06T15:48:07.516Z,16.10
2022-12-06T15:50:38.278Z,15.73
2022-12-06T15:53:10.326Z,15.40
2022-12-06T15:55:40.831Z,14.48
2022-12-06T15:58:10.498Z,14.20
2022-12-06T16:00:42.206Z,13.52
2022-12-06T16:03:12.792Z,12.57
2022-12-06T16:05:44.069Z,15.43
2022-12-06T16:08:15.471Z,14.45
2022-12-06T16:11:11.305Z,14.23
2022-12-06T16:13:38.394Z,16.20
2022-12-06T16:16:10.972Z,18.10
2022-12-06T16:18:41.248Z,18.58
2022-12-06T16:21:36.317Z,29.63
2022-12-06T16:24:15.188Z,28.13
2022-12-06T16:26:47.169Z,22.48
2022-12-06T16:29:23.420Z,22.30
2022-12-06T16:31:55.658Z,22.77
2022-12-06T16:34:27.777Z,32.53
2022-12-06T16:37:04.992Z,29.63
2022-12-06T16:39:37.361Z,28.08
2022-12-06T16:42:09.232Z,26.00
2022-12-06T16:44:52.279Z,26.92
2022-12-06T16:49:55.471Z,24.65
2022-12-06T16:52:28.327Z,22.52
2022-12-06T16:54:58.890Z,22.00
2022-12-06T16:57:29.144Z,20.95
2022-12-06T17:00:00.178Z,23.55
2022-12-06T17:02:34.427Z,26.95
2022-12-06T17:05:15.569Z,25.40
2022-12-06T17:07:46.961Z,24.08
2022-12-06T17:10:19.741Z,24.45
2022-12-06T17:12:53.157Z,27.30
2022-12-06T17:15:29.129Z,25.77
2022-12-06T17:18:02.298Z,26.58
2022-12-06T17:20:34.366Z,32.90
2022-12-06T17:23:07.663Z,26.95
2022-12-06T17:25:37.909Z,25.05
2022-12-06T17:28:11.318Z,27.52
2022-12-06T17:30:47.789Z,35.22
2022-12-06T17:33:22.567Z,30.08
2022-12-06T17:35:54.553Z,30.80
2022-12-06T17:38:26.538Z,30.42
2022-12-06T17:40:58.452Z,27.60
2022-12-06T17:43:34.878Z,25.67
2022-12-06T17:46:11.285Z,27.35
2022-12-06T17:48:44.511Z,25.25
2022-12-06T17:51:16.648Z,24.42
2022-12-06T17:53:47.333Z,23.85
2022-12-06T17:56:43.487Z,25.35
2022-12-06T17:59:21.928Z,22.95
2022-12-06T18:04:44.372Z,23.42
2022-12-06T18:07:15.045Z,23.30
2022-12-06T18:09:44.526Z,24.33
2022-12-06T18:12:15.632Z,25.98
2022-12-06T18:14:44.763Z,27.45
2022-12-06T18:17:12.997Z,25.95
2022-12-06T18:19:43.959Z,26.48
2022-12-06T18:22:11.807Z,25.20
2022-12-06T18:24:39.462Z,23.42
2022-12-06T18:27:08.742Z,26.70
2022-12-06T18:29:37.376Z,26.50
2022-12-06T18:32:05.277Z,25.63
2022-12-06T18:34:33.733Z,29.00
2022-12-06T18:37:01.379Z,28.70
2022-12-06T18:39:29.056Z,24.95
2022-12-06T18:41:58.207Z,34.65
2022-12-06T18:44:26.117Z,25.45
2022-12-06T18:46:53.770Z,26.13
2022-12-06T18:49:21.553Z,29.35
2022-12-06T18:51:49.566Z,29.27
2022-12-06T18:54:17.072Z,28.45
2022-12-06T18:56:44.681Z,28.90
2022-12-06T18:59:12.478Z,29.48
2022-12-06T19:01:41.127Z,28.10
2022-12-06T19:04:14.889Z,27.65
2022-12-06T19:06:44.148Z,26.27
2022-12-06T19:09:15.693Z,24.85
2022-12-06T19:11:46.280Z,26.05
2022-12-06T19:14:15.886Z,27.80
2022-12-06T19:16:48.011Z,23.30
2022-12-06T19:19:25.161Z,24.35
2022-12-06T19:21:54.906Z,26.55
2022-12-06T19:24:25.431Z,30.80
2022-12-06T19:26:54.855Z,29.55
2022-12-06T19:29:22.853Z,29.27
2022-12-06T19:31:51.644Z,34.78
2022-12-06T19:34:25.921Z,32.00
2022-12-06T19:36:59.812Z,32.97
2022-12-06T19:39:27.916Z,36.05
2022-12-06T19:42:15.516Z,28.10
2022-12-06T19:44:43.521Z,31.63
2022-12-06T19:47:11.657Z,30.73
2022-12-06T19:49:39.209Z,32.92
2022-12-06T19:52:06.809Z,35.83
2022-12-06T19:54:36.049Z,33.92
2022-12-06T19:57:05.021Z,35.53
2022-12-06T19:59:36.393Z,36.40
2022-12-06T20:02:04.750Z,36.53
2022-12-06T20:04:35.939Z,32.17
2022-12-06T20:07:04.958Z,32.30
2022-12-06T20:09:34.085Z,40.50
2022-12-06T20:12:04.836Z,41.92
2022-12-06T20:14:35.211Z,44.80
2022-12-06T20:17:06.229Z,39.15
2022-12-06T20:19:34.920Z,38.38
2022-12-06T20:22:03.225Z,37.60
2022-12-06T20:24:32.598Z,43.58
2022-12-06T20:27:02.244Z,36.17
2022-12-06T20:29:30.248Z,38.63
2022-12-06T20:32:02.104Z,36.05
2022-12-06T20:34:34.493Z,35.50
2022-12-06T20:37:05.216Z,35.50
2022-12-06T20:39:35.459Z,35.15
2022-12-06T20:42:06.126Z,30.13
2022-12-06T20:44:35.000Z,32.80
2022-12-06T20:47:02.755Z,28.33
2022-12-06T20:49:30.954Z,31.90
2022-12-06T20:52:01.113Z,41.42
2022-12-06T20:54:28.670Z,35.13
2022-12-06T20:56:56.207Z,37.15
2022-12-06T20:59:25.285Z,32.15
2022-12-06T21:01:53.013Z,29.67
2022-12-06T21:04:21.659Z,29.42
2022-12-06T21:06:49.159Z,30.33
2022-12-06T21:09:18.752Z,29.65
2022-12-06T21:11:46.909Z,29.48
2022-12-06T21:14:17.556Z,31.88
2022-12-06T21:16:45.080Z,28.55
2022-12-06T21:19:19.697Z,27.08
2022-12-06T21:21:53.252Z,28.10
2022-12-06T21:24:22.066Z,30.00
2022-12-06T21:26:49.755Z,30.60
2022-12-06T21:29:30.173Z,29.55
2022-12-06T21:32:01.716Z,29.40
2022-12-06T21:34:29.518Z,27.42
2022-12-06T21:36:57.222Z,26.48
2022-12-06T21:39:24.902Z,26.73
2022-12-06T21:41:53.178Z,34.15
2022-12-06T21:44:20.805Z,28.92
2022-12-06T21:46:52.548Z,29.35
2022-12-06T21:49:20.365Z,28.20
2022-12-06T21:51:47.867Z,24.70
2022-12-06T21:54:15.271Z,27.67
2022-12-06T21:56:42.891Z,27.25
2022-12-06T21:59:10.362Z,23.08
2022-12-06T22:01:43.174Z,23.45
2022-12-06T22:04:10.794Z,23.30
2022-12-06T22:06:38.741Z,22.77
2022-12-06T22:09:06.868Z,25.27
2022-12-06T22:11:35.165Z,21.02
2022-12-06T22:14:04.967Z,24.45
2022-12-06T22:16:33.186Z,26.95
2022-12-06T22:19:02.896Z,24.60
2022-12-06T22:21:32.910Z,23.58
2022-12-06T22:24:02.031Z,21.95
2022-12-06T22:26:31.128Z,24.63
2022-12-06T22:29:03.018Z,28.10
2022-12-06T22:31:33.957Z,20.42
2022-12-06T22:34:03.545Z,24.08
2022-12-06T22:36:32.232Z,26.27
2022-12-06T22:39:04.732Z,25.27
2022-12-06T22:41:33.595Z,25.17
2022-12-06T22:44:06.112Z,20.55
2022-12-06T22:46:35.044Z,22.20
2022-12-06T22:49:03.677Z,20.10
2022-12-06T22:51:37.669Z,20.80
2022-12-06T22:54:12.034Z,19.90
2022-12-06T22:56:41.454Z,26.00
2022-12-06T22:59:09.596Z,22.75
2022-12-06T23:01:36.807Z,22.70
2022-12-06T23:04:06.678Z,20.95
2022-12-06T23:06:36.507Z,19.67
2022-12-06T23:09:06.667Z,23.25
2022-12-06T23:11:36.248Z,22.85
2022-12-06T23:14:05.782Z,22.98
2022-12-06T23:16:33.419Z,19.30
2022-12-06T23:19:04.329Z,18.88
2022-12-06T23:21:35.168Z,20.02
2022-12-06T23:24:07.472Z,19.95
2022-12-06T23:26:42.103Z,19.63
2022-12-06T23:29:10.214Z,25.08
2022-12-06T23:31:42.762Z,18.52
2022-12-06T23:34:25.972Z,18.23
2022-12-06T23:36:53.799Z,17.17
2022-12-06T23:39:20.892Z,17.48
2022-12-06T23:41:49.619Z,17.67
2022-12-06T23:44:16.743Z,16.95
2022-12-06T23:46:45.946Z,17.70
2022-12-06T23:49:19.982Z,19.52
2022-12-06T23:51:48.285Z,20.15
2022-12-06T23:54:17.598Z,20.17
2022-12-06T23:56:45.130Z,23.50
2022-12-06T23:59:15.903Z,24.63
